Flight Track Log - Related Links

Times and Time Zones

All times are in EDT time to prevent confusion due to time zone crossing. See the N66010 flight status page for this flight to view local times or setup timezone preferences in your user account.

Time Position Orientation Groundspeed Altitude Reporting Facility
EDT Latitude Longitude Course Direction KTS MPH feet Rate Location/Type
Sun 02:13:24 AM 28.4167 -81.3167 156° South 71 82 1,000  Level Orlando TRACON
Sun 02:14:24 AM 28.4167 -81.3000 90° East 93 107 1,500 650 Climbing Orlando TRACON
Sun 02:15:24 AM 28.4167 -81.2667 90° East 73 84 2,300 700 Climbing Orlando TRACON
Sun 02:16:24 AM 28.4333 -81.2500 41° Northeast 72 83 2,900 600 Climbing Orlando TRACON
Sun 02:17:24 AM 28.4333 -81.2333 90° East 72 83 3,500 645 Climbing Orlando TRACON
Sun 02:18:00 AM 28.2952 -81.2154 156° South  Level Estimated
Sun 02:18:25 AM 28.4500 -81.2167 41° Northeast 74 85 4,200  Level Orlando TRACON
Sun 02:19:25 AM 28.4667 -81.2000 41° Northeast 74 85 4,700 550 Climbing Orlando TRACON
Sun 02:20:25 AM 28.4667 -81.1667 90° East 73 84 5,300 500 Climbing Orlando TRACON
Sun 02:21:25 AM 28.4667 -81.1500 90° East 77 89 5,700 450 Climbing Orlando TRACON
Sun 02:22:25 AM 28.4500 -81.1167 120° Southeast 74 85 6,200 429 Climbing Orlando TRACON
Sun 02:23:31 AM 28.4500 -81.1000 90° East 78 90 6,600 429 Climbing Orlando TRACON
Sun 02:24:31 AM 28.4333 -81.0667 120° Southeast 82 94 7,100 421 Climbing Orlando TRACON
Sun 02:25:25 AM 28.4333 -81.0500 90° East 80 92 7,400 368 Climbing Orlando TRACON
Sun 02:26:25 AM 28.4333 -81.0333 90° East 82 94 7,800 400 Climbing Orlando TRACON
Sun 02:27:25 AM 28.4167 -81.0000 120° Southeast 78 90 8,200 400 Climbing Orlando TRACON
Sun 02:28:25 AM 28.4167 -80.9833 90° East 78 90 8,600 400 Climbing Orlando TRACON
Sun 02:29:25 AM 28.4000 -80.9500 120° Southeast 79 91 9,000 400 Climbing Orlando TRACON
Sun 02:30:25 AM 28.4000 -80.9333 90° East 78 90 9,400 250 Climbing Orlando TRACON
Sun 02:31:25 AM 28.3833 -80.9167 139° Southeast 85 98 9,500 100 Climbing Orlando TRACON
Sun 02:32:25 AM 28.3500 -80.9000 156° South 113 130 9,600 50 Climbing Orlando TRACON
Sun 02:33:25 AM 28.3167 -80.8833 156° South 114 131 9,600  Level Orlando TRACON
Sun 02:34:25 AM 28.3000 -80.8667 139° Southeast 117 135 9,600 -50 Level Orlando TRACON
Sun 02:35:25 AM 28.2667 -80.8500 156° South 114 131 9,500 -62 Descending Orlando TRACON
Sun 02:37:38 AM 28.2019 -80.8289 164° South 113 130 9,400 -31 Descending Miami Center
Sun 02:38:41 AM 28.1719 -80.8161 159° South 113 130 9,400 50 Level Miami Center
Sun 02:39:39 AM 28.1419 -80.8033 159° South 114 131 9,500  Climbing Miami Center
Sun 02:40:39 AM 28.1100 -80.7886 158° South 113 130 9,400  Descending Miami Center
Sun 02:41:39 AM 28.0786 -80.7775 163° South 118 136 9,500 49 Climbing Miami Center
Sun 02:42:41 AM 28.0469 -80.7625 157° South 118 136 9,500  Level Miami Center
Sun 02:43:40 AM 28.0200 -80.7453 151° Southeast 118 136 9,500 -50 Level Miami Center
Sun 02:44:40 AM 27.9881 -80.7286 155° Southeast 119 137 9,400 -50 Descending Miami Center
Sun 02:45:40 AM 27.9569 -80.7128 156° South 126 145 9,400  Level Miami Center
Sun 02:46:42 AM 27.9286 -80.6928 148° Southeast 117 135 9,400  Level Miami Center
Sun 02:47:41 AM 27.9019 -80.6758 151° Southeast 117 135 9,400  Level Miami Center
Sun 02:48:43 AM 27.8733 -80.6575 150° Southeast 115 132 9,400  Level Miami Center
Sun 02:49:41 AM 27.8464 -80.6414 152° Southeast 115 132 9,400  Level Miami Center
Sun 02:50:43 AM 27.8194 -80.6253 152° Southeast 115 132 9,400  Level Miami Center
Sun 02:51:42 AM 27.7900 -80.6075 152° Southeast 115 132 9,400 50 Level Miami Center
Sun 02:52:42 AM 27.7628 -80.5897 150° Southeast 115 132 9,500  Climbing Miami Center
Sun 02:53:42 AM 27.7325 -80.5714 152° Southeast 115 132 9,400 -50 Descending Miami Center
Sun 02:54:43 AM 27.7044 -80.5556 153° Southeast 116 133 9,400 -50 Level Miami Center
Sun 02:55:43 AM 27.6742 -80.5389 154° Southeast 116 133 9,300  Descending Miami Center
Sun 02:56:43 AM 27.6469 -80.5225 152° Southeast 116 133 9,400 49 Climbing Miami Center
Sun 02:57:46 AM 27.6153 -80.5089 159° South 116 133 9,400  Level Miami Center
Sun 02:58:46 AM 27.5858 -80.4942 156° South 116 133 9,400  Level Miami Center
Sun 02:59:47 AM 27.5531 -80.4781 156° South 119 137 9,400 -51 Level Miami Center
Sun 03:00:44 AM 27.5231 -80.4633 156° South 120 138 9,300  Descending Miami Center
Sun 03:01:46 AM 27.4900 -80.4497 160° South 121 139 9,400 50 Climbing Miami Center
Sun 03:02:45 AM 27.4603 -80.4386 162° South 119 137 9,400  Level Miami Center
Sun 03:03:47 AM 27.4278 -80.4261 161° South 119 137 9,400 49 Level Miami Center
Sun 03:04:48 AM 27.3975 -80.4153 162° South 119 137 9,500  Climbing Miami Center
Sun 03:05:46 AM 27.3644 -80.4042 163° South 119 137 9,400  Descending Miami Center
Sun 03:06:46 AM 27.3331 -80.3936 163° South 120 138 9,500 50 Climbing Miami Center
Sun 03:07:46 AM 27.3000 -80.3797 160° South 120 138 9,500 -50 Level Miami Center
Sun 03:08:47 AM 27.2683 -80.3686 163° South 121 139 9,400  Descending Miami Center
Sun 03:09:47 AM 27.2364 -80.3578 163° South 121 139 9,500 50 Climbing Miami Center
Sun 03:10:47 AM 27.2019 -80.3483 166° South 121 139 9,500 -98 Level Miami Center
Sun 03:11:49 AM 27.1692 -80.3386 165° South 126 145 9,300 -341 Descending Miami Center
Sun 03:12:50 AM 27.1303 -80.3311 170° South 133 153 8,800 -706 Descending Miami Center
Sun 03:13:48 AM 27.0933 -80.3200 165° South 141 162 7,900 -1,017 Descending Miami Center
Sun 03:14:48 AM 27.0542 -80.3078 164° South 141 162 6,800 -927 Descending Miami Center
Sun 03:15:51 AM 27.0192 -80.2975 165° South 138 159 6,000 -645 Descending Miami Center
Sun 03:16:49 AM 26.9842 -80.2864 164° South 127 146 5,500 -400 Descending Miami Center
Sun 03:17:51 AM 26.9531 -80.2767 164° South 126 145 5,200 -290 Descending Miami Center
Sun 03:19:00 AM 26.9212 -80.2522 156° South  Level FlightAware Approximate
Sun 03:26:00 AM 26.8459 -80.2223 160° South  Level Estimated
Sun 03:27:00 AM 26.8459 -80.2223 158° South  Level Estimated
Sun 03:28:00 AM 26.8459 -80.2223 158° South  Level Estimated
Sun 03:29:00 AM 26.8459 -80.2223 160° South  Level Estimated
Sun 03:30:00 AM 26.8459 -80.2223 158° South  Level Estimated
Sun 03:31:00 AM 26.8459 -80.2223 158° South  Level Estimated

Login

Don't have an account? Register now (free) for customized features, flight alerts, and more!